Time;durP1;ratioP1;P1;durP2;ratioP2;P2;SDS_P1;SDS_P2;PMS_P1;PMS_P2;Temp;Humidity;BMP_temperature;BMP_pressure;BME280_temperature;BME280_humidity;BME280_pressure;Samples;Min_cycle;Max_cycle;Signal;HPM_P1;HPM_P2
2023/10/05 00:01:29;;;;;;;4.57;2.08;;;14.00;99.90;;;;;;4826689;29;20271;-64
2023/10/05 00:03:55;;;;;;;2.72;2.00;;;14.00;99.90;;;;;;4826741;29;20187;-64
2023/10/05 00:06:24;;;;;;;7.25;2.55;;;14.00;99.90;;;;;;4826799;29;20245;-65
2023/10/05 00:08:54;;;;;;;5.43;2.00;;;13.90;99.90;;;;;;4826290;29;20180;-65
2023/10/05 00:11:29;;;;;;;4.38;2.08;;;13.90;99.90;;;;;;4826545;29;20211;-65
2023/10/05 00:14:09;;;;;;;4.75;2.03;;;13.90;99.90;;;;;;4826384;29;20187;-65
2023/10/05 00:16:38;;;;;;;4.00;2.10;;;13.90;99.90;;;;;;4826419;29;20695;-67
2023/10/05 00:19:16;;;;;;;4.95;1.85;;;13.80;99.90;;;;;;4826210;29;20651;-64
2023/10/05 00:21:51;;;;;;;5.32;2.15;;;13.80;99.90;;;;;;4826273;29;20751;-65
2023/10/05 00:24:26;;;;;;;5.70;2.35;;;13.90;99.90;;;;;;4826309;29;20201;-64
2023/10/05 00:26:52;;;;;;;4.57;2.03;;;13.80;99.90;;;;;;4826513;29;20183;-63
2023/10/05 00:31:44;;;;;;;5.95;2.30;;;13.80;99.90;;;;;;4826077;29;20191;-64
2023/10/05 00:34:13;;;;;;;6.25;2.33;;;13.80;99.90;;;;;;4826237;29;20175;-64
2023/10/05 00:36:43;;;;;;;6.53;2.30;;;13.80;99.90;;;;;;4826081;29;20585;-62
2023/10/05 00:39:09;;;;;;;4.75;2.15;;;13.90;99.90;;;;;;4825987;29;20240;-64
2023/10/05 00:41:36;;;;;;;5.20;1.95;;;13.80;99.90;;;;;;4825910;29;20219;-65
2023/10/05 00:44:05;;;;;;;6.53;2.40;;;13.80;99.90;;;;;;4825814;29;20601;-64
2023/10/05 00:46:38;;;;;;;5.55;2.15;;;13.80;99.90;;;;;;4825983;29;20186;-64
2023/10/05 00:49:13;;;;;;;3.78;1.90;;;13.80;99.90;;;;;;4826148;29;20176;-64
2023/10/05 00:51:42;;;;;;;4.57;2.05;;;13.80;99.90;;;;;;4825822;29;20552;-65
2023/10/05 00:54:16;;;;;;;6.10;2.50;;;13.70;99.90;;;;;;4825977;29;20270;-64
2023/10/05 00:56:45;;;;;;;7.47;2.47;;;13.80;99.90;;;;;;4825671;29;20542;-64
2023/10/05 00:59:20;;;;;;;6.07;2.65;;;13.80;99.90;;;;;;4825832;29;20186;-64
2023/10/05 01:02:04;;;;;;;6.82;2.20;;;13.80;99.90;;;;;;4825745;29;20222;-64
2023/10/05 01:07:18;;;;;;;7.18;2.38;;;13.70;99.90;;;;;;4825508;29;20194;-64
2023/10/05 01:12:39;;;;;;;4.20;2.05;;;13.70;99.90;;;;;;4825624;29;20187;-63
2023/10/05 01:15:06;;;;;;;6.38;2.35;;;13.70;99.90;;;;;;4825046;29;20368;-64
2023/10/05 01:17:34;;;;;;;7.63;2.65;;;13.70;99.90;;;;;;4825258;29;20182;-64
2023/10/05 01:20:16;;;;;;;4.45;2.30;;;13.70;99.90;;;;;;4825287;29;20534;-64
2023/10/05 01:22:44;;;;;;;5.18;2.10;;;13.70;99.90;;;;;;4825379;29;20669;-64
2023/10/05 01:25:14;;;;;;;6.07;2.50;;;13.70;99.90;;;;;;4825292;29;20194;-64
2023/10/05 01:27:42;;;;;;;7.22;2.45;;;13.70;99.90;;;;;;4825263;29;20685;-64
2023/10/05 01:30:12;;;;;;;5.22;2.17;;;13.80;99.90;;;;;;4825268;29;20617;-64
2023/10/05 01:32:38;;;;;;;6.85;2.53;;;13.80;99.90;;;;;;4825368;29;20187;-64
2023/10/05 01:35:07;;;;;;;8.50;2.40;;;13.80;99.90;;;;;;4825234;29;20193;-62
2023/10/05 01:37:35;;;;;;;6.18;2.13;;;13.80;99.90;;;;;;4825205;29;20654;-63
2023/10/05 01:40:01;;;;;;;8.75;2.50;;;13.80;99.90;;;;;;4825129;29;20184;-64
2023/10/05 01:42:30;;;;;;;5.70;2.53;;;13.90;99.90;;;;;;4824850;29;20223;-64
2023/10/05 01:44:55;;;;;;;4.60;2.08;;;14.00;99.90;;;;;;4825112;29;20179;-64
2023/10/05 01:47:22;;;;;;;6.13;2.20;;;14.00;99.90;;;;;;4824972;29;20247;-64
2023/10/05 01:49:50;;;;;;;7.45;2.42;;;14.00;99.90;;;;;;4825008;29;20195;-64
2023/10/05 01:52:20;;;;;;;6.20;2.33;;;14.00;99.90;;;;;;4824929;29;20260;-63
2023/10/05 01:54:46;;;;;;;7.93;2.33;;;13.90;99.90;;;;;;4824891;29;20240;-64
2023/10/05 01:57:16;;;;;;;6.10;2.00;;;14.00;99.90;;;;;;4824700;29;20179;-64
2023/10/05 01:59:43;;;;;;;6.75;2.25;;;14.00;99.90;;;;;;4825119;29;20598;-63
2023/10/05 02:02:12;;;;;;;5.43;2.45;;;14.00;99.90;;;;;;4824822;29;20215;-63
2023/10/05 02:04:40;;;;;;;4.97;2.58;;;14.10;99.90;;;;;;4824709;29;20650;-64
2023/10/05 02:07:06;;;;;;;4.72;2.22;;;14.00;99.90;;;;;;4824774;29;20274;-63
2023/10/05 02:09:31;;;;;;;4.82;2.40;;;14.00;99.90;;;;;;4824708;29;20586;-62
2023/10/05 02:12:02;;;;;;;5.63;2.03;;;13.90;99.90;;;;;;4824488;29;20199;-64
2023/10/05 02:14:30;;;;;;;4.40;2.28;;;14.00;99.90;;;;;;4824990;29;20250;-63
2023/10/05 02:16:57;;;;;;;5.50;2.35;;;14.00;99.90;;;;;;4824342;29;20208;-64
2023/10/05 02:19:23;;;;;;;7.38;2.28;;;14.00;99.90;;;;;;4824719;29;20183;-64
2023/10/05 02:21:53;;;;;;;5.45;2.00;;;14.00;99.90;;;;;;4824540;29;20219;-64
2023/10/05 02:24:22;;;;;;;5.63;2.47;;;14.00;99.90;;;;;;4824379;29;20228;-64
2023/10/05 02:29:29;;;;;;;4.93;2.30;;;14.00;99.90;;;;;;4824612;29;20202;-64
2023/10/05 02:34:21;;;;;;;6.03;2.22;;;13.90;99.90;;;;;;4824405;29;20191;-64
2023/10/05 02:36:47;;;;;;;7.72;2.25;;;13.90;99.90;;;;;;4824262;29;20573;-64
2023/10/05 02:39:14;;;;;;;4.90;2.67;;;13.90;99.90;;;;;;4824551;29;20183;-65
2023/10/05 02:41:39;;;;;;;6.07;2.28;;;13.90;99.90;;;;;;4824294;29;20219;-63
2023/10/05 02:44:17;;;;;;;4.38;2.35;;;13.90;99.90;;;;;;4824388;29;20240;-63
2023/10/05 02:46:47;;;;;;;7.90;2.40;;;14.00;99.90;;;;;;4824354;29;20187;-64
2023/10/05 02:49:15;;;;;;;5.43;2.55;;;13.80;99.90;;;;;;4808025;29;20185;-64
2023/10/05 02:51:43;;;;;;;6.65;2.70;;;13.90;99.90;;;;;;4824318;29;20255;-63
2023/10/05 02:54:10;;;;;;;4.38;2.50;;;13.80;99.90;;;;;;4824229;29;20665;-64
2023/10/05 02:56:37;;;;;;;8.20;2.85;;;13.80;99.90;;;;;;4824186;29;20586;-64
2023/10/05 02:59:07;;;;;;;5.63;2.30;;;13.80;99.90;;;;;;4824224;29;20231;-64
2023/10/05 03:01:37;;;;;;;5.82;2.47;;;13.80;99.90;;;;;;4824105;29;20314;-63
2023/10/05 03:04:09;;;;;;;7.22;2.80;;;13.80;99.90;;;;;;4823923;29;20211;-64
2023/10/05 03:06:35;;;;;;;5.53;2.58;;;13.80;99.90;;;;;;4824230;29;20287;-64
2023/10/05 03:09:07;;;;;;;6.07;2.20;;;13.80;99.90;;;;;;4824204;29;20718;-64
2023/10/05 03:11:37;;;;;;;6.38;2.38;;;13.70;99.90;;;;;;4823949;29;20541;-63
2023/10/05 03:14:02;;;;;;;7.07;2.58;;;13.80;99.90;;;;;;4823916;29;20276;-64
2023/10/05 03:16:29;;;;;;;5.85;2.40;;;13.70;99.90;;;;;;4823860;29;20726;-63
2023/10/05 03:18:54;;;;;;;5.88;2.38;;;13.70;99.90;;;;;;4824031;29;20565;-63
2023/10/05 03:21:21;;;;;;;6.78;2.85;;;13.70;99.90;;;;;;4823972;29;20211;-64
2023/10/05 03:23:47;;;;;;;5.90;2.25;;;13.60;99.90;;;;;;4823953;29;20199;-64
2023/10/05 03:26:16;;;;;;;6.25;2.22;;;13.60;99.90;;;;;;4823922;29;20180;-64
2023/10/05 03:28:42;;;;;;;5.07;2.20;;;13.60;99.90;;;;;;4823903;29;20175;-63
2023/10/05 03:31:32;;;;;;;5.10;2.55;;;13.60;99.90;;;;;;4827011;29;20184;-63
2023/10/05 03:33:58;;;;;;;7.63;3.40;;;13.60;99.90;;;;;;4827105;29;20176;-64
2023/10/05 03:36:24;;;;;;;7.88;3.03;;;13.60;99.90;;;;;;4827075;29;20665;-64
2023/10/05 03:38:56;;;;;;;6.50;2.47;;;13.60;99.90;;;;;;4826980;29;20205;-64
2023/10/05 03:41:28;;;;;;;4.82;2.38;;;13.50;99.90;;;;;;4826670;29;20253;-63
2023/10/05 03:44:02;;;;;;;8.05;2.67;;;13.50;99.90;;;;;;4826966;29;20188;-63
2023/10/05 03:46:28;;;;;;;6.03;2.70;;;13.50;99.90;;;;;;4827095;29;20244;-63
2023/10/05 03:49:06;;;;;;;6.15;2.67;;;13.50;99.90;;;;;;4826792;29;20175;-63
2023/10/05 03:51:32;;;;;;;9.93;2.92;;;13.50;99.90;;;;;;4826806;29;20213;-63
2023/10/05 03:53:57;;;;;;;6.05;2.85;;;13.50;99.90;;;;;;4826582;29;20638;-64
2023/10/05 03:56:27;;;;;;;7.57;2.85;;;13.50;99.90;;;;;;4826785;29;20187;-64
2023/10/05 03:58:54;;;;;;;5.47;2.67;;;13.50;99.90;;;;;;4826730;29;20180;-63
2023/10/05 04:01:22;;;;;;;7.13;2.63;;;13.50;99.90;;;;;;4826724;29;20302;-64
2023/10/05 04:03:49;;;;;;;7.93;2.72;;;13.50;99.90;;;;;;4826512;29;20661;-64
2023/10/05 04:06:20;;;;;;;7.40;3.03;;;13.60;99.90;;;;;;4826256;29;20243;-63
2023/10/05 04:08:48;;;;;;;5.38;2.83;;;13.50;99.90;;;;;;4826377;29;20217;-64
2023/10/05 04:11:15;;;;;;;7.35;3.03;;;13.50;99.90;;;;;;4826470;29;20191;-64
2023/10/05 04:13:41;;;;;;;5.72;2.65;;;13.40;99.90;;;;;;4826534;29;20283;-63
2023/10/05 04:16:11;;;;;;;6.43;2.70;;;13.50;99.90;;;;;;4826281;29;20274;-63
2023/10/05 04:18:38;;;;;;;4.80;2.67;;;13.60;99.90;;;;;;4826333;29;20192;-64
2023/10/05 04:21:05;;;;;;;5.25;2.47;;;13.50;99.90;;;;;;4826014;29;20215;-62
2023/10/05 04:23:32;;;;;;;6.05;2.35;;;13.60;99.90;;;;;;4826071;29;20183;-63
2023/10/05 04:25:57;;;;;;;8.95;3.15;;;13.50;99.90;;;;;;4826222;29;20192;-63
2023/10/05 04:28:39;;;;;;;5.57;2.75;;;13.60;99.90;;;;;;4826265;29;20259;-63
2023/10/05 04:31:11;;;;;;;7.72;2.80;;;13.50;99.90;;;;;;4826148;29;20254;-63
2023/10/05 04:33:39;;;;;;;7.35;2.97;;;13.50;99.90;;;;;;4826009;29;20180;-64
2023/10/05 04:36:05;;;;;;;6.57;2.90;;;13.60;99.90;;;;;;4826104;29;20196;-63
2023/10/05 04:38:32;;;;;;;4.18;2.22;;;13.70;99.90;;;;;;4826142;29;20550;-63
2023/10/05 04:41:00;;;;;;;9.05;3.33;;;13.60;99.90;;;;;;4825801;29;20646;-64
2023/10/05 04:43:26;;;;;;;4.68;2.72;;;13.60;99.90;;;;;;4825906;29;20224;-63
2023/10/05 04:45:51;;;;;;;5.35;2.80;;;13.60;99.90;;;;;;4825841;29;20260;-62
2023/10/05 04:48:18;;;;;;;5.97;2.65;;;13.60;99.90;;;;;;4825745;29;20344;-63
2023/10/05 04:50:46;;;;;;;4.03;2.47;;;13.50;99.90;;;;;;4825931;29;20531;-63
2023/10/05 04:53:14;;;;;;;7.78;3.15;;;13.50;99.90;;;;;;4825773;29;20190;-64
2023/10/05 04:55:42;;;;;;;9.30;2.90;;;13.40;99.90;;;;;;4825727;29;20664;-63
2023/10/05 04:58:53;;;;;;;5.95;2.90;;;13.40;99.90;;;;;;4825661;29;20554;-63
2023/10/05 05:06:11;;;;;;;8.38;3.25;;;13.40;99.90;;;;;;4825586;29;20315;-65
2023/10/05 05:08:39;;;;;;;5.70;3.00;;;13.40;99.90;;;;;;4825498;29;20279;-65
2023/10/05 05:11:19;;;;;;;6.97;3.15;;;13.40;99.90;;;;;;4825386;29;20205;-65
2023/10/05 05:13:48;;;;;;;5.35;2.45;;;13.40;99.90;;;;;;4825412;29;20724;-65
2023/10/05 05:16:18;;;;;;;4.55;2.40;;;13.40;99.90;;;;;;4825478;29;20704;-65
2023/10/05 05:18:44;;;;;;;7.18;2.85;;;13.50;99.90;;;;;;4825386;29;20180;-64
2023/10/05 05:21:11;;;;;;;5.75;3.17;;;13.50;99.90;;;;;;4825287;29;20678;-64
2023/10/05 05:23:37;;;;;;;7.55;2.53;;;13.50;99.90;;;;;;4825269;29;20191;-64
2023/10/05 05:26:03;;;;;;;5.20;2.78;;;13.50;99.90;;;;;;4825259;29;20187;-65
2023/10/05 05:28:30;;;;;;;6.22;2.65;;;13.40;99.90;;;;;;4825412;29;20201;-64
2023/10/05 05:31:06;;;;;;;5.50;2.45;;;13.50;99.90;;;;;;4825328;29;20239;-65
2023/10/05 05:33:33;;;;;;;7.22;2.92;;;13.40;99.90;;;;;;4825175;29;20191;-65
2023/10/05 05:36:05;;;;;;;7.55;3.03;;;13.50;99.90;;;;;;4825158;29;20547;-65
2023/10/05 05:38:30;;;;;;;8.27;3.00;;;13.50;99.90;;;;;;4825296;29;20184;-65
2023/10/05 05:40:56;;;;;;;8.68;2.80;;;13.50;99.90;;;;;;4824986;29;20212;-65
2023/10/05 05:43:22;;;;;;;7.07;3.55;;;13.50;99.90;;;;;;4825242;29;20183;-65
2023/10/05 05:45:47;;;;;;;5.70;2.88;;;13.40;99.90;;;;;;4825067;29;20527;-65
2023/10/05 05:48:16;;;;;;;7.32;3.00;;;13.40;99.90;;;;;;4825133;29;20612;-65
2023/10/05 05:50:43;;;;;;;5.82;2.50;;;13.30;99.90;;;;;;4824848;29;20232;-65
2023/10/05 05:53:11;;;;;;;6.78;2.42;;;13.30;99.90;;;;;;4824208;29;20194;-65
2023/10/05 05:55:43;;;;;;;5.32;2.85;;;13.30;99.90;;;;;;4824708;29;20190;-64
2023/10/05 05:58:14;;;;;;;4.47;2.65;;;13.30;99.90;;;;;;4824986;29;20233;-64
2023/10/05 06:00:40;;;;;;;8.38;3.08;;;13.40;99.90;;;;;;4824878;29;20183;-64
2023/10/05 06:03:10;;;;;;;8.05;3.00;;;13.40;99.90;;;;;;4824758;29;20266;-63
2023/10/05 06:05:36;;;;;;;6.25;2.95;;;13.40;99.90;;;;;;4824583;29;20280;-64
2023/10/05 06:08:03;;;;;;;6.50;3.03;;;13.20;99.90;;;;;;4824956;29;20191;-65
2023/10/05 06:10:34;;;;;;;7.57;2.70;;;13.30;99.90;;;;;;4824747;29;20218;-63
2023/10/05 06:13:01;;;;;;;8.90;2.90;;;13.30;99.90;;;;;;4824688;29;20191;-64
2023/10/05 06:15:28;;;;;;;9.18;2.88;;;13.40;99.90;;;;;;4824580;29;20187;-67
2023/10/05 06:17:54;;;;;;;5.88;2.60;;;13.40;99.90;;;;;;4824784;29;20654;-64
2023/10/05 06:20:20;;;;;;;7.38;3.22;;;13.50;99.90;;;;;;4824754;29;20274;-66
2023/10/05 06:22:47;;;;;;;7.03;2.80;;;13.40;99.90;;;;;;4824661;29;20218;-66
2023/10/05 06:25:16;;;;;;;7.55;2.85;;;13.40;99.90;;;;;;4824671;29;20611;-66
2023/10/05 06:27:50;;;;;;;8.25;2.53;;;13.40;99.90;;;;;;4824549;29;20601;-66
2023/10/05 06:30:16;;;;;;;8.90;3.17;;;13.50;99.90;;;;;;4824441;29;20274;-66
2023/10/05 06:32:45;;;;;;;7.57;2.90;;;13.60;99.90;;;;;;4824482;29;20274;-65
2023/10/05 06:35:11;;;;;;;9.30;3.08;;;13.50;99.90;;;;;;4824639;29;20668;-66
2023/10/05 06:37:38;;;;;;;7.38;2.67;;;13.50;99.90;;;;;;4824549;29;20312;-65
2023/10/05 06:40:12;;;;;;;7.30;3.10;;;13.50;99.90;;;;;;4824395;29;20258;-65
2023/10/05 06:42:42;;;;;;;7.20;3.10;;;13.50;99.90;;;;;;4824409;29;20226;-66
2023/10/05 06:45:13;;;;;;;8.98;3.30;;;13.70;99.90;;;;;;4824156;29;20287;-65
2023/10/05 06:47:39;;;;;;;6.25;2.75;;;13.80;99.90;;;;;;4824577;29;20179;-65
2023/10/05 06:50:09;;;;;;;6.50;3.05;;;13.80;99.90;;;;;;4824135;29;20724;-65
2023/10/05 06:52:40;;;;;;;7.43;3.13;;;13.80;99.90;;;;;;4824333;29;20235;-65
2023/10/05 06:55:09;;;;;;;7.95;2.83;;;13.70;99.90;;;;;;4824123;29;20646;-65
2023/10/05 06:57:39;;;;;;;10.60;3.70;;;13.80;99.90;;;;;;4824057;29;20211;-65
2023/10/05 07:00:12;;;;;;;6.85;3.05;;;13.90;99.90;;;;;;4824493;29;20184;-64
2023/10/05 07:02:41;;;;;;;4.88;3.15;;;13.90;99.90;;;;;;4824229;29;20207;-65
2023/10/05 07:05:08;;;;;;;11.43;3.60;;;14.00;99.90;;;;;;4827442;29;20231;-65
2023/10/05 07:07:34;;;;;;;8.23;3.55;;;14.00;99.90;;;;;;4827473;29;20183;-65
2023/10/05 07:10:04;;;;;;;7.18;2.65;;;14.00;99.90;;;;;;4827262;29;20676;-65
2023/10/05 07:12:31;;;;;;;7.25;2.97;;;14.00;99.90;;;;;;4827306;29;20668;-65
2023/10/05 07:14:57;;;;;;;7.78;2.92;;;14.10;99.90;;;;;;4827432;29;20179;-66
2023/10/05 07:17:26;;;;;;;8.40;2.80;;;14.10;99.90;;;;;;4827383;29;20538;-65
2023/10/05 07:19:52;;;;;;;7.82;3.03;;;14.10;99.90;;;;;;4827228;29;20198;-64
2023/10/05 07:22:18;;;;;;;9.23;3.30;;;14.20;99.90;;;;;;4827175;29;20719;-65
2023/10/05 07:24:44;;;;;;;8.55;3.30;;;14.20;99.90;;;;;;4827309;29;20179;-66
2023/10/05 07:27:09;;;;;;;7.10;2.92;;;14.10;99.90;;;;;;4827315;29;20186;-65
2023/10/05 07:29:36;;;;;;;5.93;2.65;;;14.20;99.90;;;;;;4827210;29;20194;-65
2023/10/05 07:32:05;;;;;;;8.85;3.20;;;14.30;99.90;;;;;;4827099;29;20188;-66
2023/10/05 07:34:31;;;;;;;4.70;2.78;;;14.20;99.90;;;;;;4827052;29;20607;-66
2023/10/05 07:37:01;;;;;;;7.93;3.10;;;14.30;99.90;;;;;;4827002;29;20258;-66
2023/10/05 07:39:28;;;;;;;7.63;3.05;;;14.40;99.90;;;;;;4826817;29;20187;-64
2023/10/05 07:41:54;;;;;;;6.60;3.15;;;14.40;99.90;;;;;;4825916;29;20626;-65
2023/10/05 07:44:20;;;;;;;5.57;2.85;;;14.40;99.90;;;;;;4827059;29;20267;-65
2023/10/05 07:46:46;;;;;;;7.13;3.17;;;14.40;99.90;;;;;;4826729;29;20211;-66
2023/10/05 07:49:13;;;;;;;6.72;3.30;;;14.50;99.90;;;;;;4826770;29;20207;-65
2023/10/05 07:51:39;;;;;;;8.15;3.33;;;14.50;99.90;;;;;;4826741;29;20183;-66
2023/10/05 07:54:05;;;;;;;7.65;3.65;;;14.50;99.90;;;;;;4810360;29;20187;-65
2023/10/05 07:56:32;;;;;;;8.40;3.30;;;14.50;99.90;;;;;;4826749;29;20184;-65
2023/10/05 07:58:58;;;;;;;6.78;3.20;;;14.60;99.90;;;;;;4827038;29;20194;-65
2023/10/05 08:01:25;;;;;;;6.80;3.17;;;14.60;99.90;;;;;;4826576;29;20215;-66
2023/10/05 08:03:51;;;;;;;7.03;3.10;;;14.60;99.90;;;;;;4826577;29;20644;-65
2023/10/05 08:06:17;;;;;;;7.85;3.00;;;14.60;99.90;;;;;;4826690;29;20258;-65
2023/10/05 08:08:44;;;;;;;8.32;3.20;;;14.60;99.90;;;;;;4826582;29;20188;-65
2023/10/05 08:11:15;;;;;;;9.20;3.20;;;14.60;99.90;;;;;;4826678;29;20187;-66
2023/10/05 08:13:42;;;;;;;6.50;2.80;;;14.70;99.90;;;;;;4826333;29;20642;-66
2023/10/05 08:16:08;;;;;;;8.93;3.00;;;14.70;99.90;;;;;;4825605;29;20209;-66
2023/10/05 08:18:34;;;;;;;7.53;2.80;;;14.80;99.90;;;;;;4826361;29;20266;-66
2023/10/05 08:21:00;;;;;;;9.60;3.42;;;14.90;99.90;;;;;;4826047;29;20191;-65
2023/10/05 08:23:28;;;;;;;8.57;3.28;;;14.90;99.90;;;;;;4826389;29;20187;-66
2023/10/05 08:25:57;;;;;;;6.15;2.95;;;14.90;99.90;;;;;;4826266;29;20650;-65
2023/10/05 08:28:24;;;;;;;7.13;2.80;;;15.00;99.90;;;;;;4826276;29;20210;-66
2023/10/05 08:31:05;;;;;;;7.38;3.10;;;14.90;99.90;;;;;;4826135;29;20279;-65
2023/10/05 08:33:34;;;;;;;7.15;3.10;;;15.00;99.90;;;;;;4826104;29;20185;-65
2023/10/05 08:36:06;;;;;;;9.15;3.17;;;15.00;99.90;;;;;;4826211;29;20530;-66
2023/10/05 08:38:36;;;;;;;7.70;2.88;;;15.10;99.90;;;;;;4826162;29;20588;-65
2023/10/05 08:41:07;;;;;;;8.07;3.45;;;15.20;99.90;;;;;;4825957;29;20187;-65
2023/10/05 08:43:46;;;;;;;8.23;3.40;;;15.10;99.90;;;;;;4825978;29;20283;-65
2023/10/05 08:46:14;;;;;;;8.48;2.90;;;15.20;99.90;;;;;;4810144;29;20235;-66
2023/10/05 08:48:41;;;;;;;7.30;2.85;;;15.30;99.90;;;;;;4826142;29;20534;-65
2023/10/05 08:51:13;;;;;;;8.02;3.08;;;15.30;99.90;;;;;;4825903;29;20191;-65
2023/10/05 08:53:44;;;;;;;11.13;3.53;;;15.30;99.90;;;;;;4825840;29;20183;-66
2023/10/05 08:56:14;;;;;;;7.70;2.97;;;15.30;99.90;;;;;;4825726;29;20262;-66
2023/10/05 08:58:48;;;;;;;5.57;3.10;;;15.30;99.90;;;;;;4825575;29;20180;-65
2023/10/05 09:01:25;;;;;;;6.88;3.17;;;15.30;99.90;;;;;;4825785;29;20203;-65
2023/10/05 09:04:01;;;;;;;7.82;3.00;;;15.30;99.90;;;;;;4825734;29;20649;-63
2023/10/05 09:06:28;;;;;;;6.65;3.10;;;15.20;99.90;;;;;;4825431;29;20276;-65
2023/10/05 09:11:33;;;;;;;8.60;2.90;;;15.20;99.90;;;;;;4825496;29;20193;-67
2023/10/05 09:16:55;;;;;;;6.38;2.97;;;15.20;99.90;;;;;;4825573;29;20224;-65
2023/10/05 09:19:29;;;;;;;9.48;3.10;;;15.20;99.90;;;;;;4825371;29;20204;-65
2023/10/05 09:22:10;;;;;;;6.65;2.97;;;15.10;99.90;;;;;;4825410;29;20226;-65
2023/10/05 09:24:37;;;;;;;4.78;2.80;;;15.20;99.90;;;;;;4825410;29;20285;-66
2023/10/05 09:27:19;;;;;;;29.95;6.53;;;15.20;99.90;;;;;;4824404;29;20183;-66
2023/10/05 09:29:47;;;;;;;17.02;4.43;;;15.20;99.90;;;;;;4825261;29;20549;-65
2023/10/05 09:32:36;;;;;;;10.07;3.03;;;15.30;99.90;;;;;;4825219;29;20638;-66
2023/10/05 09:35:04;;;;;;;6.53;2.60;;;15.40;99.90;;;;;;4825294;29;20212;-66
2023/10/05 09:37:35;;;;;;;9.25;3.22;;;15.30;99.90;;;;;;4825131;29;20270;-66
2023/10/05 09:40:03;;;;;;;10.77;3.50;;;15.40;99.90;;;;;;4825101;29;20638;-66
2023/10/05 09:42:33;;;;;;;9.95;3.10;;;15.30;99.90;;;;;;4824932;29;20610;-65
2023/10/05 09:45:08;;;;;;;11.95;3.67;;;15.30;99.90;;;;;;4825220;29;20587;-66
2023/10/05 09:47:35;;;;;;;8.10;3.20;;;15.40;99.90;;;;;;4825115;29;20179;-66
2023/10/05 09:50:10;;;;;;;8.50;3.22;;;15.50;99.90;;;;;;4824987;29;20183;-66
2023/10/05 09:52:43;;;;;;;6.47;3.42;;;15.50;99.90;;;;;;4824932;29;20239;-66
2023/10/05 09:55:19;;;;;;;9.43;3.15;;;15.60;99.90;;;;;;4825036;29;20283;-65
2023/10/05 09:57:51;;;;;;;8.38;3.50;;;15.70;99.90;;;;;;4824967;29;20182;-65
2023/10/05 10:00:47;;;;;;;8.45;3.00;;;15.80;99.90;;;;;;4825014;29;20203;-65
2023/10/05 10:03:15;;;;;;;10.10;3.65;;;15.90;99.90;;;;;;4824546;29;20727;-65
2023/10/05 10:06:10;;;;;;;8.82;2.88;;;16.00;99.90;;;;;;4824797;29;20239;-65
2023/10/05 10:09:08;;;;;;;6.75;2.72;;;16.00;99.90;;;;;;4823731;29;20611;-66
2023/10/05 10:11:35;;;;;;;6.18;2.97;;;16.20;99.90;;;;;;4824559;29;20646;-65
2023/10/05 10:14:05;;;;;;;7.00;2.90;;;16.20;99.90;;;;;;4824798;29;20534;-66
2023/10/05 10:16:39;;;;;;;9.15;3.22;;;16.20;99.90;;;;;;4824903;29;20184;-65
2023/10/05 10:19:07;;;;;;;7.50;2.80;;;16.30;99.90;;;;;;4824641;29;20183;-65
2023/10/05 10:21:42;;;;;;;7.68;3.05;;;16.30;99.90;;;;;;4824461;29;20272;-66
2023/10/05 10:24:12;;;;;;;6.90;2.88;;;16.30;99.90;;;;;;4824467;29;20210;-66
2023/10/05 10:27:11;;;;;;;10.43;3.25;;;16.50;99.90;;;;;;4824709;29;20183;-65
2023/10/05 10:29:46;;;;;;;7.85;2.95;;;16.50;99.90;;;;;;4824592;29;20175;-66
2023/10/05 10:32:19;;;;;;;6.93;2.95;;;16.60;99.90;;;;;;4824454;29;20599;-65
2023/10/05 10:34:55;;;;;;;8.57;2.70;;;16.70;99.90;;;;;;4824355;29;20271;-65
2023/10/05 10:37:36;;;;;;;10.63;3.17;;;16.70;99.90;;;;;;4824491;29;20198;-65
2023/10/05 10:40:25;;;;;;;9.50;2.92;;;16.70;99.90;;;;;;4827945;29;20182;-66
2023/10/05 10:42:53;;;;;;;11.07;3.22;;;16.90;99.90;;;;;;4827846;29;20215;-65
2023/10/05 10:45:28;;;;;;;10.00;3.30;;;17.10;99.90;;;;;;4828047;29;20187;-66
2023/10/05 10:47:54;;;;;;;10.95;2.97;;;17.10;99.90;;;;;;4828047;29;20197;-65
2023/10/05 10:50:29;;;;;;;8.75;2.72;;;17.20;99.90;;;;;;4827754;29;20645;-65
2023/10/05 10:52:55;;;;;;;6.22;2.72;;;17.20;99.90;;;;;;4827909;29;20179;-65
2023/10/05 10:55:24;;;;;;;5.85;2.40;;;17.20;99.90;;;;;;4827699;29;20187;-66
2023/10/05 10:57:54;;;;;;;7.22;2.42;;;17.20;99.90;;;;;;4827816;29;20184;-66
2023/10/05 11:03:11;;;;;;;7.85;2.65;;;17.40;99.90;;;;;;4827562;29;20766;-65
2023/10/05 11:05:47;;;;;;;8.68;2.75;;;17.30;99.90;;;;;;4827337;29;20274;-65
2023/10/05 11:08:20;;;;;;;8.45;2.72;;;17.40;99.90;;;;;;4827406;29;20217;-65
2023/10/05 11:11:16;;;;;;;6.70;2.30;;;17.40;99.90;;;;;;4827504;29;20184;-66
2023/10/05 11:13:57;;;;;;;8.00;2.50;;;17.40;99.90;;;;;;4826996;29;20199;-66
2023/10/05 11:16:35;;;;;;;10.50;2.55;;;17.50;99.90;;;;;;4827195;29;20642;-65
2023/10/05 11:19:04;;;;;;;5.97;2.50;;;17.40;99.90;;;;;;4827349;29;20653;-66
2023/10/05 11:21:34;;;;;;;6.18;2.20;;;17.40;99.90;;;;;;4827228;29;20242;-67
2023/10/05 11:24:06;;;;;;;7.80;2.50;;;17.30;99.90;;;;;;4827249;29;20180;-66
2023/10/05 11:26:58;;;;;;;7.47;3.00;;;17.30;99.90;;;;;;4827147;29;20183;-66
2023/10/05 11:29:42;;;;;;;7.82;2.55;;;17.40;99.90;;;;;;4827229;29;20274;-66
2023/10/05 11:32:15;;;;;;;7.40;2.75;;;17.40;99.90;;;;;;4813400;29;20183;-66
2023/10/05 11:34:42;;;;;;;4.68;2.42;;;17.40;99.90;;;;;;4826987;29;20221;-64
2023/10/05 11:37:18;;;;;;;6.53;2.50;;;17.50;99.90;;;;;;4826849;29;20224;-66
2023/10/05 11:39:50;;;;;;;11.60;3.13;;;17.60;99.90;;;;;;4827122;29;20175;-66
2023/10/05 11:42:34;;;;;;;7.97;2.38;;;17.60;99.90;;;;;;4827115;29;20246;-66
2023/10/05 11:45:00;;;;;;;6.55;2.30;;;17.70;99.90;;;;;;4826865;29;20202;-67
2023/10/05 11:47:35;;;;;;;5.70;2.53;;;17.80;99.90;;;;;;4826808;29;20258;-65
2023/10/05 11:50:08;;;;;;;6.32;2.22;;;17.70;99.90;;;;;;4825751;29;20645;-67
2023/10/05 11:52:38;;;;;;;6.93;2.50;;;17.70;99.90;;;;;;4826840;29;20195;-65
2023/10/05 11:55:07;;;;;;;6.10;2.38;;;17.60;99.90;;;;;;4826695;29;20263;-65
2023/10/05 11:57:33;;;;;;;7.53;2.65;;;17.60;99.90;;;;;;4826650;29;20283;-65
2023/10/05 12:00:04;;;;;;;9.02;2.45;;;17.70;99.90;;;;;;4826600;29;20582;-65
2023/10/05 12:02:30;;;;;;;5.35;2.47;;;17.70;99.90;;;;;;4826831;29;20215;-65
2023/10/05 12:04:56;;;;;;;5.95;2.42;;;17.80;99.90;;;;;;4826493;29;20266;-65
2023/10/05 12:07:25;;;;;;;7.47;2.30;;;17.80;99.90;;;;;;4826468;29;20214;-66
2023/10/05 12:09:51;;;;;;;5.30;2.88;;;17.80;99.90;;;;;;4826451;29;20195;-65
2023/10/05 12:12:18;;;;;;;6.57;2.25;;;17.90;99.90;;;;;;4826448;29;20704;-65
2023/10/05 12:14:44;;;;;;;7.55;2.33;;;17.90;99.90;;;;;;4826295;29;20654;-65
2023/10/05 12:17:10;;;;;;;7.00;1.92;;;18.00;99.90;;;;;;4826542;29;20191;-65
2023/10/05 12:19:35;;;;;;;5.13;2.25;;;18.10;99.90;;;;;;4826450;29;20175;-66
2023/10/05 12:22:02;;;;;;;5.65;2.35;;;18.10;99.90;;;;;;4826285;29;20255;-65
2023/10/05 12:24:28;;;;;;;6.45;2.25;;;18.10;99.90;;;;;;4826180;29;20650;-64
2023/10/05 12:26:59;;;;;;;6.15;1.70;;;18.20;99.90;;;;;;4826234;29;20190;-65
2023/10/05 12:29:27;;;;;;;7.82;2.55;;;18.40;99.90;;;;;;4826119;29;20188;-66
2023/10/05 12:31:53;;;;;;;4.88;1.73;;;18.40;99.90;;;;;;4826317;29;20194;-65
2023/10/05 12:34:23;;;;;;;5.95;2.10;;;18.50;99.90;;;;;;4826238;29;20266;-65
2023/10/05 12:36:49;;;;;;;6.72;2.00;;;18.50;99.90;;;;;;4826261;29;20275;-66
2023/10/05 12:39:20;;;;;;;5.72;1.85;;;18.60;99.90;;;;;;4825962;29;20236;-63
2023/10/05 12:41:47;;;;;;;6.07;2.10;;;18.60;99.90;;;;;;4825757;29;20735;-66
2023/10/05 12:44:13;;;;;;;4.78;1.98;;;18.70;99.90;;;;;;4825886;29;20188;-65
2023/10/05 12:46:46;;;;;;;4.63;1.88;;;18.70;99.90;;;;;;4826022;29;20646;-66
2023/10/05 12:49:14;;;;;;;4.47;1.55;;;18.80;99.90;;;;;;4825863;29;20202;-66
2023/10/05 12:51:44;;;;;;;5.03;2.20;;;18.90;99.90;;;;;;4825794;29;20653;-65
2023/10/05 12:54:28;;;;;;;6.35;1.80;;;18.80;99.90;;;;;;4825764;29;20211;-66
2023/10/05 12:56:54;;;;;;;4.68;1.98;;;18.80;99.90;;;;;;4825994;29;20538;-65
2023/10/05 12:59:19;;;;;;;5.82;1.67;;;18.90;99.90;;;;;;4825834;29;20184;-65
2023/10/05 13:01:46;;;;;;;3.80;1.58;;;18.90;99.90;;;;;;4825494;29;20219;-65
2023/10/05 13:04:13;;;;;;;3.20;1.60;;;18.90;99.90;;;;;;4825602;29;20187;-66
2023/10/05 13:06:40;;;;;;;2.85;1.77;;;18.90;99.90;;;;;;4825533;29;20273;-66
2023/10/05 13:09:12;;;;;;;3.92;1.45;;;18.80;99.90;;;;;;4825515;29;20187;-66
2023/10/05 13:11:44;;;;;;;3.08;1.65;;;18.80;99.90;;;;;;4825723;29;20288;-66
2023/10/05 13:14:19;;;;;;;4.88;1.75;;;18.90;99.90;;;;;;4825612;29;20198;-66
2023/10/05 13:16:48;;;;;;;6.93;2.28;;;18.90;99.90;;;;;;4825577;29;20179;-66
2023/10/05 13:19:14;;;;;;;5.38;1.90;;;18.80;99.90;;;;;;4794376;29;20646;-66
2023/10/05 13:21:42;;;;;;;3.75;1.95;;;18.80;99.90;;;;;;4825133;29;20331;-66
2023/10/05 13:24:11;;;;;;;4.82;1.60;;;18.80;99.90;;;;;;4825428;29;20187;-66
2023/10/05 13:26:44;;;;;;;4.53;1.70;;;18.70;99.90;;;;;;4825344;29;20187;-66